Time;durP1;ratioP1;P1;durP2;ratioP2;P2;SDS_P1;SDS_P2;PMS_P1;PMS_P2;Temp;Humidity;BMP_temperature;BMP_pressure;BME280_temperature;BME280_humidity;BME280_pressure;Samples;Min_cycle;Max_cycle;Signal;HPM_P1;HPM_P2
2022/11/28 00:02:12;;;;;;;6.65;3.10;;;;;;;;;;5073516;28;20023;-72
2022/11/28 00:04:38;;;;;;;6.85;3.63;;;;;;;;;;5072749;28;20028;-72
2022/11/28 00:07:05;;;;;;;6.38;2.75;;;;;;;;;;5072888;28;20020;-72
2022/11/28 00:09:31;;;;;;;6.28;3.20;;;;;;;;;;5073209;28;20033;-72
2022/11/28 00:11:57;;;;;;;5.28;2.88;;;;;;;;;;5073032;28;20030;-71
2022/11/28 00:14:24;;;;;;;6.93;3.08;;;;;;;;;;5072771;28;20055;-72
2022/11/28 00:16:50;;;;;;;6.72;3.25;;;;;;;;;;5073263;28;20020;-72
2022/11/28 00:19:16;;;;;;;9.45;3.47;;;;;;;;;;5072217;28;20489;-72
2022/11/28 00:21:43;;;;;;;5.07;3.13;;;;;;;;;;5084403;28;20026;-72
2022/11/28 00:24:09;;;;;;;7.45;3.10;;;;;;;;;;5092793;28;20497;-72
2022/11/28 00:26:37;;;;;;;6.60;2.85;;;;;;;;;;5092791;28;20032;-72
2022/11/28 00:29:04;;;;;;;6.32;2.78;;;;;;;;;;5092937;28;20038;-72
2022/11/28 00:31:31;;;;;;;6.70;2.97;;;;;;;;;;5092956;28;20023;-72
2022/11/28 00:33:58;;;;;;;7.00;2.60;;;;;;;;;;5092455;28;20030;-72
2022/11/28 00:36:24;;;;;;;8.88;2.92;;;;;;;;;;5093112;28;20026;-72
2022/11/28 00:38:51;;;;;;;7.60;2.80;;;;;;;;;;5092847;28;20048;-71
2022/11/28 00:41:19;;;;;;;8.93;2.88;;;;;;;;;;5083055;28;20047;-72
2022/11/28 00:43:47;;;;;;;5.93;2.90;;;;;;;;;;5072851;28;20028;-72
2022/11/28 00:46:14;;;;;;;7.20;2.92;;;;;;;;;;5072441;28;20024;-72
2022/11/28 00:48:40;;;;;;;6.53;2.38;;;;;;;;;;5070673;28;20033;-72
2022/11/28 00:51:06;;;;;;;6.00;2.80;;;;;;;;;;5072129;28;20019;-72
2022/11/28 00:53:32;;;;;;;5.18;2.63;;;;;;;;;;5072120;28;20017;-72
2022/11/28 00:55:59;;;;;;;4.47;2.30;;;;;;;;;;5072311;28;20028;-72
2022/11/28 00:58:25;;;;;;;7.88;2.42;;;;;;;;;;5072206;28;20082;-72
2022/11/28 01:00:51;;;;;;;6.88;2.58;;;;;;;;;;5072248;28;20047;-72
2022/11/28 01:03:18;;;;;;;9.00;2.80;;;;;;;;;;5071025;28;20035;-72
2022/11/28 01:05:44;;;;;;;6.25;2.72;;;;;;;;;;5072192;28;20532;-72
2022/11/28 01:08:10;;;;;;;5.47;2.40;;;;;;;;;;5071264;28;20036;-72
2022/11/28 01:10:41;;;;;;;5.55;2.70;;;;;;;;;;5072232;28;20024;-72
2022/11/28 01:13:07;;;;;;;4.80;2.70;;;;;;;;;;5072179;28;20020;-72
2022/11/28 01:15:34;;;;;;;8.48;2.58;;;;;;;;;;5072155;28;20255;-72
2022/11/28 01:18:01;;;;;;;5.53;2.67;;;;;;;;;;5071603;28;20020;-72
2022/11/28 01:20:28;;;;;;;6.65;2.80;;;;;;;;;;5072957;28;20469;-72
2022/11/28 01:22:54;;;;;;;7.88;2.47;;;;;;;;;;5092362;28;20024;-72
2022/11/28 01:25:21;;;;;;;4.95;2.47;;;;;;;;;;5092009;28;20034;-72
2022/11/28 01:27:47;;;;;;;7.63;2.90;;;;;;;;;;5074163;28;20466;-72
2022/11/28 01:30:13;;;;;;;9.75;2.88;;;;;;;;;;5092496;28;20043;-72
2022/11/28 01:32:40;;;;;;;6.25;2.50;;;;;;;;;;5092129;28;20035;-72
2022/11/28 01:35:06;;;;;;;5.32;2.63;;;;;;;;;;5092167;28;20034;-72
2022/11/28 01:37:32;;;;;;;7.57;2.60;;;;;;;;;;5092386;28;20021;-72
2022/11/28 01:39:59;;;;;;;5.30;2.75;;;;;;;;;;5091814;28;20044;-72
2022/11/28 01:42:25;;;;;;;6.38;2.42;;;;;;;;;;5072870;28;20031;-72
2022/11/28 01:44:51;;;;;;;7.05;2.38;;;;;;;;;;5071858;28;20073;-72
2022/11/28 01:47:21;;;;;;;7.70;3.00;;;;;;;;;;5071517;28;20027;-72
2022/11/28 01:49:48;;;;;;;6.97;2.28;;;;;;;;;;5071577;28;20137;-72
2022/11/28 01:52:17;;;;;;;6.72;2.42;;;;;;;;;;5071771;28;20056;-72
2022/11/28 01:54:45;;;;;;;6.55;2.25;;;;;;;;;;5071692;28;20028;-72
2022/11/28 01:57:15;;;;;;;5.22;2.17;;;;;;;;;;5071539;28;20021;-72
2022/11/28 01:59:51;;;;;;;7.95;2.28;;;;;;;;;;5070445;28;20031;-72
2022/11/28 02:02:20;;;;;;;7.10;2.28;;;;;;;;;;5071644;28;20028;-72
2022/11/28 02:04:46;;;;;;;8.63;2.25;;;;;;;;;;5075723;28;20025;-72
2022/11/28 02:07:13;;;;;;;5.72;2.15;;;;;;;;;;5075124;28;20036;-72
2022/11/28 02:09:39;;;;;;;7.80;2.70;;;;;;;;;;5075259;28;20431;-72
2022/11/28 02:12:08;;;;;;;8.07;2.53;;;;;;;;;;5075522;28;20028;-72
2022/11/28 02:14:47;;;;;;;8.73;2.60;;;;;;;;;;5075284;28;20038;-72
2022/11/28 02:17:43;;;;;;;8.95;3.00;;;;;;;;;;5074986;28;20470;-72
2022/11/28 02:20:28;;;;;;;7.85;2.30;;;;;;;;;;5066193;28;20501;-71
2022/11/28 02:23:03;;;;;;;3.78;1.95;;;;;;;;;;5095283;28;20036;-72
2022/11/28 02:25:39;;;;;;;3.17;2.10;;;;;;;;;;5095483;28;20042;-72
2022/11/28 02:28:22;;;;;;;5.40;2.03;;;;;;;;;;5094945;28;20028;-72
2022/11/28 02:30:49;;;;;;;6.63;2.28;;;;;;;;;;5094967;28;20034;-72
2022/11/28 02:33:24;;;;;;;6.05;1.88;;;;;;;;;;5094951;28;20481;-72
2022/11/28 02:36:06;;;;;;;5.30;2.20;;;;;;;;;;5094864;28;20030;-72
2022/11/28 02:38:51;;;;;;;4.93;2.13;;;;;;;;;;5094725;28;20036;-71
2022/11/28 02:41:28;;;;;;;3.60;2.00;;;;;;;;;;5094747;28;20024;-72
2022/11/28 02:44:04;;;;;;;3.78;1.85;;;;;;;;;;5094306;28;20374;-70
2022/11/28 02:46:33;;;;;;;3.90;1.73;;;;;;;;;;5094741;28;20088;-71
2022/11/28 02:49:07;;;;;;;6.75;2.22;;;;;;;;;;5094846;28;20132;-72
2022/11/28 02:51:54;;;;;;;7.07;1.88;;;;;;;;;;5094786;28;20027;-72
2022/11/28 02:54:21;;;;;;;4.40;1.98;;;;;;;;;;5094367;28;20030;-72
2022/11/28 02:56:48;;;;;;;5.15;2.10;;;;;;;;;;5094587;28;20034;-72
2022/11/28 02:59:27;;;;;;;4.47;1.95;;;;;;;;;;5094008;28;20038;-72
2022/11/28 03:01:54;;;;;;;5.22;2.20;;;;;;;;;;5076404;28;20032;-71
2022/11/28 03:04:27;;;;;;;4.38;1.90;;;;;;;;;;5089439;28;20423;-72
2022/11/28 03:06:58;;;;;;;4.13;2.00;;;;;;;;;;5094943;28;20020;-72
2022/11/28 03:09:24;;;;;;;;;;;;;;;;;;5094682;28;20092;-72
2022/11/28 03:11:56;;;;;;;5.18;1.90;;;;;;;;;;5076058;28;19908;-72
2022/11/28 03:14:23;;;;;;;5.97;2.13;;;;;;;;;;5093197;28;20473;-71
2022/11/28 03:17:12;;;;;;;6.35;2.00;;;;;;;;;;5094241;28;20100;-72
2022/11/28 03:19:53;;;;;;;6.40;2.00;;;;;;;;;;5094295;28;20016;-72
2022/11/28 03:22:19;;;;;;;4.10;2.13;;;;;;;;;;5094366;28;20016;-72
2022/11/28 03:24:48;;;;;;;6.68;2.65;;;;;;;;;;5094037;28;20032;-71
2022/11/28 03:27:25;;;;;;;3.85;2.25;;;;;;;;;;5093886;28;20016;-72
2022/11/28 03:30:00;;;;;;;6.63;2.30;;;;;;;;;;5093876;28;20088;-72
2022/11/28 03:32:32;;;;;;;5.80;2.60;;;;;;;;;;5093701;28;20028;-72
2022/11/28 03:35:02;;;;;;;7.82;2.95;;;;;;;;;;5093811;28;20493;-72
2022/11/28 03:37:37;;;;;;;5.25;2.38;;;;;;;;;;5093893;28;20370;-72
2022/11/28 03:40:06;;;;;;;5.40;2.53;;;;;;;;;;5093713;28;20048;-72
2022/11/28 03:42:34;;;;;;;6.43;2.22;;;;;;;;;;5055150;28;20778;-72
2022/11/28 03:45:15;;;;;;;4.22;2.38;;;;;;;;;;5073781;28;20017;-72
2022/11/28 03:47:43;;;;;;;8.13;1.90;;;;;;;;;;5073687;28;20030;-72
2022/11/28 03:50:19;;;;;;;4.28;2.22;;;;;;;;;;5073323;28;20036;-72
2022/11/28 03:52:49;;;;;;;6.07;2.22;;;;;;;;;;5073282;28;20032;-72
2022/11/28 03:55:22;;;;;;;6.32;3.17;;;;;;;;;;5073042;28;20077;-72
2022/11/28 03:57:49;;;;;;;8.80;2.58;;;;;;;;;;5072797;28;20032;-72
2022/11/28 04:00:15;;;;;;;5.35;2.50;;;;;;;;;;5073157;28;20021;-72
2022/11/28 04:02:42;;;;;;;5.70;2.30;;;;;;;;;;5072889;28;20439;-72
2022/11/28 04:05:08;;;;;;;10.55;2.38;;;;;;;;;;5072870;28;20047;-72
2022/11/28 04:07:37;;;;;;;6.25;2.65;;;;;;;;;;5073076;28;20508;-72
2022/11/28 04:10:08;;;;;;;4.05;2.25;;;;;;;;;;5072903;28;20082;-72
2022/11/28 04:12:44;;;;;;;6.97;3.15;;;;;;;;;;5072429;28;20481;-72
2022/11/28 04:15:17;;;;;;;5.85;2.80;;;;;;;;;;5072806;28;20037;-71
2022/11/28 04:17:49;;;;;;;7.55;3.20;;;;;;;;;;5072596;28;20397;-72
2022/11/28 04:20:25;;;;;;;6.97;2.88;;;;;;;;;;5072723;28;20069;-72
2022/11/28 04:22:54;;;;;;;7.75;3.55;;;;;;;;;;5072700;28;20047;-71
2022/11/28 04:25:20;;;;;;;9.50;3.38;;;;;;;;;;5072186;28;20039;-72
2022/11/28 04:27:54;;;;;;;10.13;3.10;;;;;;;;;;5072650;28;20031;-72
2022/11/28 04:30:20;;;;;;;10.70;2.83;;;;;;;;;;5072481;28;20041;-72
2022/11/28 04:32:51;;;;;;;9.05;2.60;;;;;;;;;;5072738;28;20031;-72
2022/11/28 04:35:30;;;;;;;6.60;2.55;;;;;;;;;;5072668;28;20028;-72
2022/11/28 04:37:58;;;;;;;6.97;2.28;;;;;;;;;;5069935;28;20505;-72
2022/11/28 04:40:25;;;;;;;8.93;2.50;;;;;;;;;;5053190;28;20033;-72
2022/11/28 04:42:54;;;;;;;7.55;2.45;;;;;;;;;;5072810;28;20032;-72
2022/11/28 04:45:24;;;;;;;9.80;2.95;;;;;;;;;;5054607;28;20378;-72
2022/11/28 04:47:50;;;;;;;7.63;2.55;;;;;;;;;;5072285;28;20031;-72
2022/11/28 04:50:16;;;;;;;7.13;2.95;;;;;;;;;;5072350;28;20043;-72
2022/11/28 04:52:43;;;;;;;5.00;2.70;;;;;;;;;;5072264;28;20565;-72
2022/11/28 04:55:26;;;;;;;7.70;2.63;;;;;;;;;;5072029;28;20037;-72
2022/11/28 04:57:54;;;;;;;8.57;2.78;;;;;;;;;;5054593;28;20021;-72
2022/11/28 05:00:21;;;;;;;7.32;3.22;;;;;;;;;;5072322;28;20024;-72
2022/11/28 05:02:50;;;;;;;7.85;2.90;;;;;;;;;;5054536;28;20086;-72
2022/11/28 05:05:18;;;;;;;5.72;2.95;;;;;;;;;;5054269;28;20035;-72
2022/11/28 05:07:45;;;;;;;6.55;2.70;;;;;;;;;;5072462;28;20028;-71
2022/11/28 05:10:12;;;;;;;4.13;2.70;;;;;;;;;;5071950;28;20037;-72
2022/11/28 05:12:38;;;;;;;5.00;2.80;;;;;;;;;;5072122;28;20017;-72
2022/11/28 05:15:05;;;;;;;4.95;2.33;;;;;;;;;;5072181;28;20025;-72
2022/11/28 05:17:32;;;;;;;5.07;2.78;;;;;;;;;;5072337;28;20038;-72
2022/11/28 05:19:58;;;;;;;7.10;2.63;;;;;;;;;;5072144;28;20036;-72
2022/11/28 05:22:24;;;;;;;6.55;3.00;;;;;;;;;;5053964;28;20519;-72
2022/11/28 05:24:51;;;;;;;7.03;3.03;;;;;;;;;;5071669;28;20021;-72
2022/11/28 05:27:17;;;;;;;7.47;3.25;;;;;;;;;;5071933;28;20025;-72
2022/11/28 05:29:45;;;;;;;8.30;3.17;;;;;;;;;;5071850;28;20046;-72
2022/11/28 05:32:12;;;;;;;8.13;3.63;;;;;;;;;;5071960;28;20016;-72
2022/11/28 05:34:38;;;;;;;6.07;3.63;;;;;;;;;;5072214;28;20030;-72
2022/11/28 05:37:05;;;;;;;7.68;3.58;;;;;;;;;;5072221;28;20032;-72
2022/11/28 05:39:31;;;;;;;8.05;3.50;;;;;;;;;;5090676;28;20097;-72
2022/11/28 05:41:58;;;;;;;6.75;3.53;;;;;;;;;;5080761;28;20054;-72
2022/11/28 05:44:24;;;;;;;7.10;3.10;;;;;;;;;;5076081;28;20024;-72
2022/11/28 05:46:51;;;;;;;13.07;6.35;;;;;;;;;;5058131;28;20028;-72
2022/11/28 05:49:20;;;;;;;45.20;20.77;;;;;;;;;;5075529;28;20050;-72
2022/11/28 05:51:47;;;;;;;14.95;6.78;;;;;;;;;;5075791;28;20025;-72
2022/11/28 05:54:14;;;;;;;15.07;5.93;;;;;;;;;;5075548;28;20378;-72
2022/11/28 05:56:40;;;;;;;9.13;5.57;;;;;;;;;;5075470;28;20447;-72
2022/11/28 05:59:06;;;;;;;12.30;4.93;;;;;;;;;;5075619;28;20035;-72
2022/11/28 06:01:32;;;;;;;11.35;7.07;;;;;;;;;;5075542;28;20017;-72
2022/11/28 06:03:59;;;;;;;9.07;3.83;;;;;;;;;;5075345;28;20042;-72
2022/11/28 06:06:27;;;;;;;11.77;7.75;;;;;;;;;;5075491;28;20031;-72
2022/11/28 06:08:53;;;;;;;10.40;4.50;;;;;;;;;;5074994;28;20032;-72
2022/11/28 06:11:21;;;;;;;14.32;6.57;;;;;;;;;;5075010;28;20036;-72
2022/11/28 06:13:48;;;;;;;87.40;45.17;;;;;;;;;;5075018;28;20024;-72
2022/11/28 06:16:15;;;;;;;13.77;7.63;;;;;;;;;;5075191;28;20431;-72
2022/11/28 06:18:42;;;;;;;9.32;4.85;;;;;;;;;;5075439;28;20024;-72
2022/11/28 06:21:09;;;;;;;9.85;4.43;;;;;;;;;;5063673;28;20387;-72
2022/11/28 06:23:35;;;;;;;9.35;5.40;;;;;;;;;;5094937;28;20028;-71
2022/11/28 06:26:09;;;;;;;8.18;5.47;;;;;;;;;;5095469;28;20028;-72
2022/11/28 06:28:36;;;;;;;11.90;5.80;;;;;;;;;;5094932;28;20028;-72
2022/11/28 06:31:02;;;;;;;9.63;5.35;;;;;;;;;;5095271;28;20034;-72
2022/11/28 06:33:28;;;;;;;9.00;5.20;;;;;;;;;;5094988;28;20024;-72
2022/11/28 06:36:01;;;;;;;10.57;5.60;;;;;;;;;;5094639;28;20026;-72
2022/11/28 06:38:31;;;;;;;8.52;5.07;;;;;;;;;;5094693;28;20047;-71
2022/11/28 06:40:58;;;;;;;34.20;19.52;;;;;;;;;;5087273;28;20233;-72
2022/11/28 06:43:25;;;;;;;23.35;13.95;;;;;;;;;;5074523;28;20036;-72
2022/11/28 06:45:52;;;;;;;16.25;9.20;;;;;;;;;;5074503;28;20028;-72
2022/11/28 06:48:18;;;;;;;26.23;15.07;;;;;;;;;;5074454;28;20035;-72
2022/11/28 06:50:44;;;;;;;22.27;11.48;;;;;;;;;;5072931;28;20040;-71
2022/11/28 06:53:11;;;;;;;16.60;9.80;;;;;;;;;;5074312;28;20027;-72
2022/11/28 06:55:37;;;;;;;18.70;10.35;;;;;;;;;;5074724;28;20028;-72
2022/11/28 06:58:03;;;;;;;17.80;10.65;;;;;;;;;;5074517;28;20042;-72
2022/11/28 07:00:30;;;;;;;34.50;16.55;;;;;;;;;;5074189;28;20035;-72
2022/11/28 07:02:57;;;;;;;16.83;8.70;;;;;;;;;;5074390;28;20481;-72
2022/11/28 07:05:26;;;;;;;13.25;8.48;;;;;;;;;;5073806;28;20028;-72
2022/11/28 07:07:53;;;;;;;17.92;9.63;;;;;;;;;;5056236;28;20025;-72
2022/11/28 07:10:19;;;;;;;13.27;7.95;;;;;;;;;;5074032;28;20370;-72
2022/11/28 07:12:46;;;;;;;14.85;7.93;;;;;;;;;;5073983;28;20511;-72
2022/11/28 07:15:12;;;;;;;14.35;8.05;;;;;;;;;;5083348;28;20034;-71
2022/11/28 07:17:38;;;;;;;14.18;8.43;;;;;;;;;;5080144;28;20023;-72
2022/11/28 07:20:05;;;;;;;13.57;8.38;;;;;;;;;;5093612;28;20400;-72
2022/11/28 07:22:31;;;;;;;14.70;9.32;;;;;;;;;;5093676;28;20028;-72
2022/11/28 07:24:58;;;;;;;16.65;11.13;;;;;;;;;;5087353;28;20024;-72
2022/11/28 07:27:24;;;;;;;17.73;10.25;;;;;;;;;;5077528;28;20405;-72
2022/11/28 07:29:50;;;;;;;21.35;10.55;;;;;;;;;;5073229;28;20036;-72
2022/11/28 07:32:17;;;;;;;16.52;10.52;;;;;;;;;;5073958;28;20017;-72
2022/11/28 07:34:44;;;;;;;17.13;10.10;;;;;;;;;;5090392;28;20036;-72
2022/11/28 07:37:10;;;;;;;19.60;10.25;;;;;;;;;;5092790;28;20028;-72
2022/11/28 07:39:36;;;;;;;17.63;9.93;;;;;;;;;;5075925;28;20523;-72
2022/11/28 07:42:03;;;;;;;17.75;10.50;;;;;;;;;;5070921;28;20025;-72
2022/11/28 07:44:29;;;;;;;18.75;11.02;;;;;;;;;;5065053;28;20024;-72
2022/11/28 07:46:55;;;;;;;25.83;14.43;;;;;;;;;;5065255;28;20393;-72
2022/11/28 07:49:22;;;;;;;17.75;11.65;;;;;;;;;;5070880;28;20486;-72
2022/11/28 07:51:48;;;;;;;22.20;12.38;;;;;;;;;;5054408;28;20405;-75
2022/11/28 07:54:14;;;;;;;21.75;12.65;;;;;;;;;;5052684;28;20031;-76
2022/11/28 07:56:41;;;;;;;21.63;11.95;;;;;;;;;;5052481;28;20367;-72
2022/11/28 07:59:07;;;;;;;23.17;13.93;;;;;;;;;;5062574;28;20485;-72
2022/11/28 08:01:35;;;;;;;24.85;14.80;;;;;;;;;;5071858;28;20375;-72
2022/11/28 08:04:02;;;;;;;20.58;13.23;;;;;;;;;;5061714;28;20033;-72
2022/11/28 08:06:29;;;;;;;18.38;12.10;;;;;;;;;;5062492;28;20532;-72
2022/11/28 08:08:59;;;;;;;21.80;11.05;;;;;;;;;;5072348;28;20041;-73
2022/11/28 08:11:27;;;;;;;19.17;11.65;;;;;;;;;;5072524;28;20023;-72
2022/11/28 08:13:53;;;;;;;14.18;8.70;;;;;;;;;;5063426;28;20027;-72
2022/11/28 08:16:21;;;;;;;15.90;9.40;;;;;;;;;;5066532;28;20027;-73
2022/11/28 08:18:48;;;;;;;15.43;8.98;;;;;;;;;;5070323;28;20027;-73
2022/11/28 08:21:16;;;;;;;15.82;9.63;;;;;;;;;;5068025;28;20033;-72
2022/11/28 08:23:44;;;;;;;16.90;9.88;;;;;;;;;;5064070;28;20032;-73
2022/11/28 08:26:12;;;;;;;23.60;10.20;;;;;;;;;;5060181;28;20027;-73
2022/11/28 08:28:39;;;;;;;15.13;9.45;;;;;;;;;;5070322;28;20058;-71
2022/11/28 08:31:09;;;;;;;19.58;11.07;;;;;;;;;;5058629;28;20444;-73
2022/11/28 08:33:35;;;;;;;12.00;7.70;;;;;;;;;;5078283;28;20413;-75
2022/11/28 08:36:04;;;;;;;10.18;5.53;;;;;;;;;;5058448;28;20473;-71
2022/11/28 08:38:30;;;;;;;16.02;10.18;;;;;;;;;;5072357;28;20043;-73
2022/11/28 08:41:03;;;;;;;8.70;5.10;;;;;;;;;;5090533;28;20080;-71
2022/11/28 08:43:30;;;;;;;8.10;3.47;;;;;;;;;;5091146;28;20028;-73
2022/11/28 08:45:56;;;;;;;7.20;3.70;;;;;;;;;;5091063;28;20040;-73
2022/11/28 08:48:22;;;;;;;6.47;3.55;;;;;;;;;;5090209;28;20024;-73
2022/11/28 08:50:49;;;;;;;3.65;2.50;;;;;;;;;;5077556;28;20033;-72
2022/11/28 08:53:16;;;;;;;9.73;3.65;;;;;;;;;;5086020;28;20020;-72
2022/11/28 08:55:43;;;;;;;10.13;5.53;;;;;;;;;;5079361;28;20024;-73
2022/11/28 08:58:10;;;;;;;14.88;6.07;;;;;;;;;;5090185;28;20023;-72
2022/11/28 09:00:36;;;;;;;17.77;8.32;;;;;;;;;;5083309;28;20074;-72
2022/11/28 09:03:03;;;;;;;17.83;7.63;;;;;;;;;;5060664;28;20040;-72
2022/11/28 09:05:30;;;;;;;18.73;7.95;;;;;;;;;;5076335;28;20016;-72
2022/11/28 09:07:56;;;;;;;13.30;5.95;;;;;;;;;;5087462;28;20477;-73
2022/11/28 09:10:23;;;;;;;9.07;4.15;;;;;;;;;;5090333;28;20028;-73
2022/11/28 09:12:50;;;;;;;11.23;5.20;;;;;;;;;;5090536;28;20504;-73
2022/11/28 09:15:17;;;;;;;7.00;3.50;;;;;;;;;;5091671;28;20028;-72
2022/11/28 09:17:44;;;;;;;6.45;3.65;;;;;;;;;;5090832;28;20016;-72
2022/11/28 09:20:11;;;;;;;9.15;5.30;;;;;;;;;;5090687;28;20020;-72
2022/11/28 09:22:37;;;;;;;19.25;9.13;;;;;;;;;;5089913;28;20305;-73
2022/11/28 09:25:04;;;;;;;9.13;4.40;;;;;;;;;;5091338;28;20485;-74
2022/11/28 09:27:30;;;;;;;12.18;4.65;;;;;;;;;;5090050;28;20121;-73
2022/11/28 09:29:57;;;;;;;20.80;10.10;;;;;;;;;;5088838;28;20036;-72
2022/11/28 09:32:23;;;;;;;23.70;11.30;;;;;;;;;;5089182;28;20396;-73
2022/11/28 09:34:50;;;;;;;23.63;11.07;;;;;;;;;;5085944;28;20034;-73
2022/11/28 09:37:16;;;;;;;11.98;5.63;;;;;;;;;;5091040;28;20051;-73
2022/11/28 09:39:43;;;;;;;14.68;6.32;;;;;;;;;;5090578;28;20052;-74
2022/11/28 09:42:21;;;;;;;17.15;7.25;;;;;;;;;;5090548;28;20031;-74
2022/11/28 09:44:50;;;;;;;15.60;6.85;;;;;;;;;;5090563;28;20008;-74
2022/11/28 09:47:19;;;;;;;12.75;6.32;;;;;;;;;;5072647;28;20040;-74
2022/11/28 09:49:45;;;;;;;12.50;5.18;;;;;;;;;;5090393;28;20040;-74
2022/11/28 09:52:21;;;;;;;9.77;3.97;;;;;;;;;;5082305;28;20482;-73
2022/11/28 09:54:51;;;;;;;4.70;2.05;;;;;;;;;;5079530;28;20028;-73
2022/11/28 09:57:33;;;;;;;3.13;1.73;;;;;;;;;;5073880;28;20392;-73
2022/11/28 09:59:59;;;;;;;3.63;1.50;;;;;;;;;;5076890;28;20549;-73
2022/11/28 10:02:31;;;;;;;3.90;1.60;;;;;;;;;;5090246;28;20020;-73
2022/11/28 10:05:13;;;;;;;2.08;1.20;;;;;;;;;;5090623;28;20024;-73
2022/11/28 10:07:39;;;;;;;2.75;1.40;;;;;;;;;;5090127;28;20382;-73
2022/11/28 10:10:21;;;;;;;2.80;1.40;;;;;;;;;;5086176;28;20035;-74
2022/11/28 10:13:04;;;;;;;3.83;2.00;;;;;;;;;;5110889;28;20026;-73
2022/11/28 10:15:30;;;;;;;3.40;1.90;;;;;;;;;;5092063;28;20449;-73
2022/11/28 10:18:02;;;;;;;2.75;1.77;;;;;;;;;;5083828;28;20485;-73
2022/11/28 10:20:32;;;;;;;5.50;2.15;;;;;;;;;;5071299;28;20027;-73
2022/11/28 10:23:24;;;;;;;3.80;2.47;;;;;;;;;;5087174;28;20028;-73
2022/11/28 10:25:54;;;;;;;4.88;2.55;;;;;;;;;;5082809;28;20036;-73
2022/11/28 10:28:27;;;;;;;4.93;2.90;;;;;;;;;;5096641;28;20016;-73
2022/11/28 10:30:57;;;;;;;5.45;3.50;;;;;;;;;;5093641;28;20035;-73
2022/11/28 10:33:28;;;;;;;4.67;2.50;;;;;;;;;;5070743;28;20021;-73
2022/11/28 10:35:57;;;;;;;3.33;1.90;;;;;;;;;;5073425;28;20025;-73
2022/11/28 10:38:37;;;;;;;2.63;1.77;;;;;;;;;;5086057;28;20039;-72
2022/11/28 10:41:41;;;;;;;4.07;1.90;;;;;;;;;;5093295;28;20028;-72
2022/11/28 10:44:15;;;;;;;6.80;2.10;;;;;;;;;;4990852;28;20023;-73
2022/11/28 10:46:44;;;;;;;3.63;2.42;;;;;;;;;;4990849;28;20038;-73
2022/11/28 10:49:34;;;;;;;3.65;1.80;;;;;;;;;;4991516;28;20060;-73
2022/11/28 10:52:11;;;;;;;6.47;3.15;;;;;;;;;;4991409;28;20416;-72
2022/11/28 10:54:56;;;;;;;3.55;2.10;;;;;;;;;;5008195;28;20529;-73
2022/11/28 10:57:26;;;;;;;5.30;2.40;;;;;;;;;;5010300;28;20032;-73
2022/11/28 11:00:02;;;;;;;3.90;2.50;;;;;;;;;;5003907;28;20018;-73
2022/11/28 11:02:31;;;;;;;5.07;2.58;;;;;;;;;;4988582;28;20129;-73
2022/11/28 11:04:58;;;;;;;4.93;2.90;;;;;;;;;;4995816;28;20026;-73
2022/11/28 11:07:27;;;;;;;8.35;2.90;;;;;;;;;;4991186;28;20041;-73
2022/11/28 11:09:53;;;;;;;4.57;1.58;;;;;;;;;;4991281;28;20045;-73
2022/11/28 11:12:21;;;;;;;4.03;1.95;;;;;;;;;;4990509;28;20076;-73
2022/11/28 11:14:47;;;;;;;4.78;1.88;;;;;;;;;;5023381;28;20043;-73
2022/11/28 11:17:33;;;;;;;9.32;3.13;;;;;;;;;;5072649;28;20070;-73
2022/11/28 11:20:00;;;;;;;9.43;3.95;;;;;;;;;;5072508;28;20040;-73
2022/11/28 11:22:30;;;;;;;9.02;3.40;;;;;;;;;;5089839;28;20036;-73
2022/11/28 11:25:06;;;;;;;9.53;3.07;;;;;;;;;;5092826;28;20054;-73
2022/11/28 11:27:32;;;;;;;11.15;3.55;;;;;;;;;;5092676;28;20027;-73
2022/11/28 11:29:59;;;;;;;9.32;3.38;;;;;;;;;;5092546;28;20485;-73
2022/11/28 11:32:30;;;;;;;8.90;4.00;;;;;;;;;;5092683;28;20058;-73
2022/11/28 11:34:57;;;;;;;11.00;5.00;;;;;;;;;;5092333;28;20032;-73
2022/11/28 11:37:29;;;;;;;13.80;5.95;;;;;;;;;;5092556;28;20038;-73
2022/11/28 11:39:55;;;;;;;11.98;7.15;;;;;;;;;;5092273;28;20056;-73
2022/11/28 11:42:23;;;;;;;11.60;4.97;;;;;;;;;;5073016;28;20054;-73
2022/11/28 11:44:50;;;;;;;15.52;4.95;;;;;;;;;;5072359;28;20098;-72
2022/11/28 11:47:16;;;;;;;13.25;3.83;;;;;;;;;;5070797;28;20043;-72
2022/11/28 11:49:49;;;;;;;13.27;3.60;;;;;;;;;;5072111;28;20032;-72
2022/11/28 11:52:23;;;;;;;12.68;3.88;;;;;;;;;;5072276;28;20439;-72
2022/11/28 11:54:56;;;;;;;10.48;3.10;;;;;;;;;;5071735;28;20028;-72
2022/11/28 11:57:42;;;;;;;13.30;3.10;;;;;;;;;;5070899;28;20082;-73
2022/11/28 12:00:09;;;;;;;17.33;4.55;;;;;;;;;;5071978;28;20028;-73
2022/11/28 12:02:55;;;;;;;18.50;5.40;;;;;;;;;;5071967;28;20031;-73
2022/11/28 12:05:44;;;;;;;12.82;4.22;;;;;;;;;;5071954;28;20035;-73
2022/11/28 12:08:13;;;;;;;12.43;3.80;;;;;;;;;;5072035;28;20020;-72
2022/11/28 12:10:46;;;;;;;18.60;4.90;;;;;;;;;;5091239;28;20043;-72
2022/11/28 12:13:20;;;;;;;18.85;4.68;;;;;;;;;;5094014;28;20037;-72
2022/11/28 12:15:49;;;;;;;12.68;4.05;;;;;;;;;;5112270;28;20028;-73
2022/11/28 12:18:27;;;;;;;12.10;4.15;;;;;;;;;;5113369;28;20469;-72
2022/11/28 12:20:54;;;;;;;10.80;3.95;;;;;;;;;;5108432;28;20019;-73
2022/11/28 12:23:29;;;;;;;8.23;2.47;;;;;;;;;;5092691;28;20450;-73
2022/11/28 12:26:02;;;;;;;9.73;2.60;;;;;;;;;;5092700;28;20020;-73
2022/11/28 12:28:51;;;;;;;9.43;2.88;;;;;;;;;;5092734;28;20050;-73
2022/11/28 12:31:17;;;;;;;53.08;4.40;;;;;;;;;;5092714;28;20543;-72
2022/11/28 12:34:04;;;;;;;36.83;4.00;;;;;;;;;;5092689;28;20026;-72
2022/11/28 12:36:33;;;;;;;20.60;3.42;;;;;;;;;;5087937;28;20028;-73
2022/11/28 12:39:00;;;;;;;16.70;2.40;;;;;;;;;;5084479;28;20047;-72
2022/11/28 12:41:26;;;;;;;13.02;2.67;;;;;;;;;;5085716;28;20024;-72
2022/11/28 12:44:02;;;;;;;8.20;2.30;;;;;;;;;;5091702;28;20027;-72
2022/11/28 12:46:44;;;;;;;16.10;3.15;;;;;;;;;;5082899;28;20065;-72
2022/11/28 12:49:14;;;;;;;10.00;2.90;;;;;;;;;;5091251;28;20028;-72
2022/11/28 12:51:46;;;;;;;13.53;3.03;;;;;;;;;;5094183;28;20488;-71
2022/11/28 12:54:31;;;;;;;16.08;3.63;;;;;;;;;;5111557;28;20346;-71
2022/11/28 12:57:10;;;;;;;12.57;3.60;;;;;;;;;;5111497;28;20490;-72
2022/11/28 12:59:45;;;;;;;16.67;3.47;;;;;;;;;;5091007;28;20038;-71
2022/11/28 13:02:32;;;;;;;13.65;3.50;;;;;;;;;;5090118;28;20031;-72
2022/11/28 13:05:17;;;;;;;14.93;3.03;;;;;;;;;;5085696;28;20024;-71
2022/11/28 13:07:52;;;;;;;12.00;3.03;;;;;;;;;;5083758;28;20396;-72
2022/11/28 13:10:26;;;;;;;14.13;3.22;;;;;;;;;;5092263;28;20077;-72
2022/11/28 13:12:52;;;;;;;17.75;3.50;;;;;;;;;;5091269;28;20027;-71
2022/11/28 13:15:30;;;;;;;26.08;4.68;;;;;;;;;;5091126;28;20028;-71
2022/11/28 13:18:03;;;;;;;14.70;3.10;;;;;;;;;;5090833;28;20021;-71
2022/11/28 13:20:30;;;;;;;13.00;2.97;;;;;;;;;;5090647;28;20472;-71
2022/11/28 13:23:05;;;;;;;15.05;2.70;;;;;;;;;;5090579;28;20028;-71
2022/11/28 13:25:54;;;;;;;16.25;2.85;;;;;;;;;;5090767;28;20119;-71
2022/11/28 13:28:38;;;;;;;24.58;5.05;;;;;;;;;;5077776;28;20032;-72
2022/11/28 13:31:27;;;;;;;12.90;2.80;;;;;;;;;;5090933;28;20024;-71
2022/11/28 13:33:54;;;;;;;18.73;3.42;;;;;;;;;;5089407;28;20034;-71
2022/11/28 13:36:39;;;;;;;16.48;4.10;;;;;;;;;;5077308;28;20031;-72
2022/11/28 13:39:14;;;;;;;23.48;5.97;;;;;;;;;;5085400;28;20520;-71
2022/11/28 13:41:43;;;;;;;14.25;3.70;;;;;;;;;;5071468;28;20031;-71
2022/11/28 13:44:20;;;;;;;16.70;3.63;;;;;;;;;;5069324;28;20034;-71
2022/11/28 13:46:46;;;;;;;37.17;10.48;;;;;;;;;;5079495;28;20038;-72
2022/11/28 13:49:23;;;;;;;40.38;9.13;;;;;;;;;;5081359;28;20029;-72
2022/11/28 13:52:09;;;;;;;18.52;4.10;;;;;;;;;;5075112;28;20070;-71
2022/11/28 13:54:41;;;;;;;18.88;2.75;;;;;;;;;;5089933;28;20366;-71
2022/11/28 13:57:08;;;;;;;12.38;2.90;;;;;;;;;;5090210;28;20020;-71
2022/11/28 13:59:35;;;;;;;15.05;3.25;;;;;;;;;;5092603;28;20028;-72
2022/11/28 14:02:03;;;;;;;12.20;2.83;;;;;;;;;;5094675;28;20024;-71
2022/11/28 14:04:30;;;;;;;16.90;3.03;;;;;;;;;;5094625;28;20020;-71
2022/11/28 14:06:59;;;;;;;10.07;2.50;;;;;;;;;;5093828;28;20016;-71
2022/11/28 14:09:36;;;;;;;16.25;2.67;;;;;;;;;;5094436;28;20240;-71
2022/11/28 14:12:09;;;;;;;17.60;4.22;;;;;;;;;;5094354;28;20020;-71
2022/11/28 14:14:47;;;;;;;12.65;3.20;;;;;;;;;;5076265;28;20024;-71
2022/11/28 14:17:27;;;;;;;10.85;2.95;;;;;;;;;;5085956;28;20012;-72
2022/11/28 14:20:10;;;;;;;14.38;2.85;;;;;;;;;;5086679;28;20038;-71
2022/11/28 14:22:55;;;;;;;12.50;3.05;;;;;;;;;;5092894;28;20049;-71
2022/11/28 14:25:21;;;;;;;12.75;2.70;;;;;;;;;;5093777;28;20031;-71
2022/11/28 14:27:56;;;;;;;9.88;2.58;;;;;;;;;;5094106;28;20028;-71
2022/11/28 14:30:25;;;;;;;12.65;2.38;;;;;;;;;;5093665;28;20089;-71
2022/11/28 14:32:55;;;;;;;14.88;2.90;;;;;;;;;;5093901;28;20024;-71
2022/11/28 14:35:44;;;;;;;15.25;3.03;;;;;;;;;;5075389;28;20036;-71
2022/11/28 14:38:29;;;;;;;17.73;3.83;;;;;;;;;;5080608;28;20418;-71
2022/11/28 14:40:56;;;;;;;13.32;3.28;;;;;;;;;;5093733;28;20024;-71
2022/11/28 14:43:25;;;;;;;15.68;3.55;;;;;;;;;;5093414;28;20053;-73
2022/11/28 14:45:51;;;;;;;15.18;3.90;;;;;;;;;;5084541;28;20028;-72
2022/11/28 14:48:27;;;;;;;15.93;4.95;;;;;;;;;;5093738;28;20028;-72
2022/11/28 14:50:54;;;;;;;11.77;3.15;;;;;;;;;;5093367;28;20036;-71
2022/11/28 14:53:35;;;;;;;12.45;3.05;;;;;;;;;;5084421;28;20020;-71
2022/11/28 14:56:17;;;;;;;17.60;3.75;;;;;;;;;;5079654;28;20029;-72